Time;durP1;ratioP1;P1;durP2;ratioP2;P2;SDS_P1;SDS_P2;PMS_P1;PMS_P2;Temp;Humidity;BMP_temperature;BMP_pressure;BME280_temperature;BME280_humidity;BME280_pressure;Samples;Min_cycle;Max_cycle;Signal;HPM_P1;HPM_P2
2021/05/04 00:00:04;;;;;;;29.17;27.58;;;;;;;11.46;100.00;101361.00;5095700;28;20052;-80
2021/05/04 00:02:32;;;;;;;29.00;27.50;;;;;;;11.40;100.00;101366.28;5095428;28;20056;-80
2021/05/04 00:04:58;;;;;;;27.85;26.38;;;;;;;11.37;100.00;101356.84;5095259;28;20043;-80
2021/05/04 00:07:24;;;;;;;28.65;27.25;;;;;;;11.09;100.00;101367.50;5095224;28;20052;-80
2021/05/04 00:09:50;;;;;;;29.27;27.88;;;;;;;10.74;100.00;101375.41;5095178;28;20491;-80
2021/05/04 00:12:18;;;;;;;28.65;27.15;;;;;;;10.27;100.00;101376.78;5094722;28;20143;-80
2021/05/04 00:14:45;;;;;;;32.13;30.27;;;;;;;9.90;100.00;101376.94;5095424;28;20055;-80
2021/05/04 00:17:12;;;;;;;33.85;31.95;;;;;;;9.47;100.00;101382.03;5095122;28;20488;-80
2021/05/04 00:19:39;;;;;;;31.60;30.00;;;;;;;9.57;100.00;101374.66;5095432;28;20396;-80
2021/05/04 00:22:06;;;;;;;32.47;30.88;;;;;;;10.01;100.00;101371.94;5095311;28;20441;-80
2021/05/04 00:24:33;;;;;;;37.55;35.45;;;;;;;10.34;100.00;101376.84;5095211;28;20044;-80
2021/05/04 00:27:01;;;;;;;32.20;30.50;;;;;;;10.39;100.00;101376.28;5095008;28;20040;-80
2021/05/04 00:29:29;;;;;;;34.75;32.95;;;;;;;10.40;100.00;101370.78;5095408;28;20048;-80
2021/05/04 00:31:55;;;;;;;37.28;35.35;;;;;;;9.22;100.00;101373.53;5094966;28;20048;-80
2021/05/04 00:34:21;;;;;;;39.28;37.28;;;;;;;9.55;100.00;101372.19;5094901;28;20043;-80
2021/05/04 00:36:47;;;;;;;37.42;35.63;;;;;;;9.88;100.00;101376.28;5094992;28;20125;-80
2021/05/04 00:39:16;;;;;;;36.00;34.20;;;;;;;8.99;100.00;101377.06;5094918;28;20054;-80
2021/05/04 00:41:42;;;;;;;33.08;31.42;;;;;;;9.60;100.00;101380.41;5094825;28;20048;-80
2021/05/04 00:44:09;;;;;;;32.47;30.67;;;;;;;9.83;100.00;101376.81;5094912;28;20044;-80
2021/05/04 00:46:36;;;;;;;28.92;27.58;;;;;;;9.84;100.00;101378.50;5094825;28;20044;-79
2021/05/04 00:49:03;;;;;;;34.53;32.85;;;;;;;9.84;100.00;101370.53;5094719;28;20442;-80
2021/05/04 00:51:29;;;;;;;32.05;30.35;;;;;;;9.72;100.00;101375.47;5094693;28;20439;-79
2021/05/04 00:53:56;;;;;;;31.00;29.45;;;;;;;9.72;100.00;101370.19;5094590;28;20090;-80
2021/05/04 00:56:24;;;;;;;34.90;33.20;;;;;;;9.84;100.00;101362.56;5094746;28;20044;-80
2021/05/04 00:58:51;;;;;;;33.15;31.45;;;;;;;9.45;100.00;101365.53;5094246;28;20048;-80
2021/05/04 01:01:19;;;;;;;33.33;31.23;;;;;;;9.33;100.00;101375.75;5094258;28;20044;-80
2021/05/04 01:03:47;;;;;;;30.70;28.90;;;;;;;9.25;100.00;101381.13;5094539;28;20047;-80
2021/05/04 01:06:13;;;;;;;38.42;36.53;;;;;;;9.19;100.00;101390.63;5094132;28;20067;-79
2021/05/04 01:08:41;;;;;;;35.22;33.42;;;;;;;9.38;100.00;101386.63;5094240;28;20108;-80
2021/05/04 01:11:07;;;;;;;37.10;35.15;;;;;;;9.32;100.00;101384.69;5094138;28;20052;-80
2021/05/04 01:13:34;;;;;;;34.58;32.55;;;;;;;9.21;100.00;101385.16;5094835;28;20094;-79
2021/05/04 01:16:00;;;;;;;34.58;32.78;;;;;;;9.04;100.00;101393.22;5094401;28;20047;-80
2021/05/04 01:18:27;;;;;;;34.88;32.75;;;;;;;9.28;100.00;101394.84;5094290;28;20416;-79
2021/05/04 01:20:55;;;;;;;36.75;34.45;;;;;;;9.62;100.00;101402.28;5093833;28;20097;-80
2021/05/04 01:23:22;;;;;;;34.50;32.80;;;;;;;9.70;100.00;101382.78;5094119;28;20052;-80
2021/05/04 01:25:49;;;;;;;30.23;28.60;;;;;;;9.78;100.00;101380.06;5093747;28;20121;-80
2021/05/04 01:28:16;;;;;;;35.72;33.65;;;;;;;9.82;100.00;101367.22;5093655;28;20465;-79
2021/05/04 01:30:44;;;;;;;40.67;38.60;;;;;;;8.98;100.00;101383.34;5094161;28;20400;-79
2021/05/04 01:33:12;;;;;;;36.85;35.03;;;;;;;9.05;100.00;101397.56;5093718;28;20063;-80
2021/05/04 01:35:39;;;;;;;36.92;35.03;;;;;;;9.25;100.00;101389.06;5093729;28;20465;-80
2021/05/04 01:38:06;;;;;;;36.58;34.58;;;;;;;8.27;100.00;101394.09;5093616;28;20044;-79
2021/05/04 01:40:34;;;;;;;36.92;35.03;;;;;;;8.55;100.00;101396.28;5093929;28;20059;-80
2021/05/04 01:43:01;;;;;;;34.33;32.55;;;;;;;8.76;100.00;101392.16;5094075;28;20048;-80
2021/05/04 01:45:27;;;;;;;34.10;32.20;;;;;;;9.08;100.00;101389.25;5093826;28;20044;-80
2021/05/04 01:47:53;;;;;;;37.75;35.80;;;;;;;9.03;100.00;101401.38;5093845;28;20044;-80
2021/05/04 01:50:20;;;;;;;35.80;34.10;;;;;;;9.09;100.00;101406.78;5093758;28;20495;-79
2021/05/04 01:52:46;;;;;;;38.90;36.80;;;;;;;8.77;100.00;101407.84;5093851;28;20408;-79
2021/05/04 01:55:15;;;;;;;34.72;32.92;;;;;;;9.12;100.00;101409.06;5093553;28;20052;-80
2021/05/04 01:57:41;;;;;;;34.97;33.13;;;;;;;9.24;100.00;101406.00;5093535;28;20183;-80
2021/05/04 02:03:29;;;;;;;35.72;33.88;;;;;;;9.09;100.00;101408.59;5073202;28;20060;-80
2021/05/04 02:05:57;;;;;;;35.17;33.38;;;;;;;9.32;100.00;101421.81;5073402;28;20059;-79
2021/05/04 02:08:25;;;;;;;34.55;32.85;;;;;;;9.48;100.00;101407.59;5072979;28;20571;-79
2021/05/04 02:10:52;;;;;;;37.28;35.42;;;;;;;9.57;100.00;101402.00;5082273;28;20221;-80
2021/05/04 02:13:18;;;;;;;39.88;37.53;;;;;;;8.93;100.00;101404.28;5117855;28;20048;-80
2021/05/04 02:15:44;;;;;;;35.42;33.10;;;;;;;8.87;100.00;101405.00;5118275;28;20051;-80
2021/05/04 02:18:11;;;;;;;35.90;34.10;;;;;;;9.49;100.00;101412.69;5117897;28;20063;-79
2021/05/04 02:20:37;;;;;;;33.25;31.45;;;;;;;9.75;100.00;101408.78;5117646;28;20047;-79
2021/05/04 02:23:03;;;;;;;33.13;31.35;;;;;;;9.89;100.00;101415.88;5117686;28;20507;-80
2021/05/04 02:25:29;;;;;;;37.88;35.58;;;;;;;9.50;100.00;101417.00;5117652;28;20063;-79
2021/05/04 02:27:57;;;;;;;36.08;34.17;;;;;;;9.62;100.00;101423.50;5117427;28;20483;-79
2021/05/04 02:30:23;;;;;;;35.45;33.35;;;;;;;9.72;100.00;101406.50;5117859;28;20100;-80
2021/05/04 02:32:49;;;;;;;39.28;37.13;;;;;;;9.80;100.00;101414.34;5117825;28;20122;-80
2021/05/04 02:35:16;;;;;;;39.97;37.70;;;;;;;9.45;100.00;101416.72;5117665;28;20066;-80
2021/05/04 02:37:42;;;;;;;35.70;33.80;;;;;;;9.48;100.00;101410.22;5117345;28;20108;-80
2021/05/04 02:40:09;;;;;;;33.65;31.85;;;;;;;9.58;100.00;101419.56;5117224;28;20047;-80
2021/05/04 02:42:36;;;;;;;33.03;31.23;;;;;;;9.59;100.00;101412.41;5118156;28;20392;-80
2021/05/04 02:45:04;;;;;;;33.55;31.17;;;;;;;8.98;100.00;101416.97;5117593;28;20066;-80
2021/05/04 02:47:30;;;;;;;34.70;32.53;;;;;;;9.18;100.00;101426.91;5117253;28;20039;-80
2021/05/04 02:49:56;;;;;;;35.65;33.75;;;;;;;9.44;100.00;101415.09;5117912;28;20051;-80
2021/05/04 02:52:23;;;;;;;32.10;30.38;;;;;;;9.51;100.00;101416.00;5117087;28;20051;-80
2021/05/04 02:54:49;;;;;;;32.78;30.70;;;;;;;9.12;100.00;101422.31;5117271;28;20044;-80
2021/05/04 02:57:16;;;;;;;37.40;35.15;;;;;;;9.06;100.00;101425.69;5117089;28;20055;-80
2021/05/04 02:59:42;;;;;;;36.47;33.97;;;;;;;9.21;100.00;101419.59;5117357;28;20043;-80
2021/05/04 03:02:10;;;;;;;35.65;33.75;;;;;;;9.17;100.00;101433.22;5117011;28;20052;-80
2021/05/04 03:04:36;;;;;;;35.33;33.15;;;;;;;9.33;100.00;101428.78;5116927;28;20047;-80
2021/05/04 03:07:03;;;;;;;32.50;30.45;;;;;;;9.08;100.00;101431.63;5117370;28;20043;-80
2021/05/04 03:09:29;;;;;;;35.53;33.53;;;;;;;8.52;100.00;101441.63;5117043;28;20081;-80
2021/05/04 03:11:55;;;;;;;33.22;31.25;;;;;;;8.97;100.00;101434.69;5116485;28;20047;-80
2021/05/04 03:14:24;;;;;;;31.77;29.88;;;;;;;8.49;100.00;101444.63;5117359;28;20066;-80
2021/05/04 03:16:50;;;;;;;33.58;31.67;;;;;;;8.97;100.00;101450.59;5116665;28;20555;-80
2021/05/04 03:19:17;;;;;;;34.55;32.55;;;;;;;9.24;100.00;101456.34;5116942;28;20052;-80
2021/05/04 03:21:44;;;;;;;36.30;34.20;;;;;;;8.66;100.00;101455.97;5116618;28;20081;-79
2021/05/04 03:24:10;;;;;;;31.17;29.27;;;;;;;8.92;100.00;101461.72;5116340;28;20055;-80
2021/05/04 03:26:36;;;;;;;30.35;28.73;;;;;;;9.25;100.00;101463.28;5116488;28;20059;-80
2021/05/04 03:29:04;;;;;;;34.15;32.15;;;;;;;8.97;100.00;101470.97;5116296;28;20460;-79
2021/05/04 03:31:30;;;;;;;33.40;31.35;;;;;;;8.87;100.00;101471.22;5116839;28;20044;-80
2021/05/04 03:33:57;;;;;;;34.13;32.33;;;;;;;9.06;100.00;101473.38;5116504;28;20059;-79
2021/05/04 03:36:24;;;;;;;40.03;37.92;;;;;;;9.27;100.00;101472.72;5116647;28;20070;-80
2021/05/04 03:38:50;;;;;;;36.17;34.38;;;;;;;9.25;100.00;101474.72;5116124;28;20063;-80
2021/05/04 03:41:17;;;;;;;35.83;33.78;;;;;;;9.19;100.00;101480.72;5116069;28;20048;-80
2021/05/04 03:43:43;;;;;;;31.02;29.23;;;;;;;9.08;100.00;101475.88;5116045;28;20511;-80
2021/05/04 03:46:09;;;;;;;31.00;29.08;;;;;;;9.20;100.00;101471.78;5116021;28;20460;-80
2021/05/04 03:48:35;;;;;;;32.70;30.77;;;;;;;9.07;100.00;101477.66;5116204;28;20080;-80
2021/05/04 03:51:02;;;;;;;32.42;30.40;;;;;;;9.24;100.00;101481.03;5116284;28;20047;-79
2021/05/04 03:53:31;;;;;;;31.35;29.48;;;;;;;8.82;100.00;101489.47;5116184;28;20399;-80
2021/05/04 03:55:57;;;;;;;31.10;29.17;;;;;;;9.09;100.00;101493.41;5116214;28;20047;-79
2021/05/04 03:58:23;;;;;;;28.00;26.40;;;;;;;9.50;100.00;101501.88;5116179;28;20054;-80
2021/05/04 04:00:50;;;;;;;31.63;29.83;;;;;;;9.51;100.00;101508.81;5116022;28;20040;-80
2021/05/04 04:03:16;;;;;;;30.27;28.58;;;;;;;9.81;100.00;101509.69;5115992;28;20047;-80
2021/05/04 04:05:42;;;;;;;29.52;27.63;;;;;;;9.67;100.00;101505.16;5116061;28;20067;-80
2021/05/04 04:08:08;;;;;;;28.58;26.85;;;;;;;9.96;100.00;101503.56;5116174;28;20063;-80
2021/05/04 04:10:39;;;;;;;27.20;25.70;;;;;;;10.14;100.00;101495.25;5115445;28;20055;-79
2021/05/04 04:13:05;;;;;;;28.05;26.45;;;;;;;10.24;100.00;101503.75;5115474;28;20059;-79
2021/05/04 04:15:32;;;;;;;27.45;25.67;;;;;;;10.38;100.00;101504.75;5115425;28;20078;-79
2021/05/04 04:17:58;;;;;;;31.05;29.05;;;;;;;10.16;100.00;101503.81;5115413;28;20044;-79
2021/05/04 04:20:25;;;;;;;36.63;34.55;;;;;;;10.34;100.00;101514.09;5115781;28;20048;-79
2021/05/04 04:22:51;;;;;;;34.00;32.20;;;;;;;10.36;100.00;101518.22;5115242;28;20051;-79
2021/05/04 04:25:17;;;;;;;34.75;32.97;;;;;;;10.52;100.00;101510.03;5115733;28;20059;-79
2021/05/04 04:27:45;;;;;;;35.50;33.50;;;;;;;10.66;100.00;101510.22;5115016;28;20047;-79
2021/05/04 04:30:12;;;;;;;36.22;34.25;;;;;;;10.78;100.00;101514.03;5115081;28;20059;-80
2021/05/04 04:32:38;;;;;;;38.03;35.38;;;;;;;10.97;100.00;101520.56;5115077;28;20050;-80
2021/05/04 04:35:05;;;;;;;31.98;30.15;;;;;;;11.11;100.00;101521.53;5114411;28;20073;-80
2021/05/04 04:37:31;;;;;;;32.35;30.40;;;;;;;11.03;100.00;101519.81;5115026;28;20509;-80
2021/05/04 04:39:57;;;;;;;32.47;30.77;;;;;;;11.27;100.00;101520.44;5115356;28;20055;-80
2021/05/04 04:42:24;;;;;;;31.48;29.60;;;;;;;11.31;100.00;101509.22;5115439;28;20059;-80
2021/05/04 04:44:51;;;;;;;31.33;29.90;;;;;;;11.37;100.00;101508.44;5115165;28;20048;-80
2021/05/04 04:47:17;;;;;;;31.60;29.90;;;;;;;11.28;100.00;101514.09;5115191;28;20100;-80
2021/05/04 04:49:43;;;;;;;30.13;28.42;;;;;;;11.52;100.00;101505.72;5114950;28;20055;-80
2021/05/04 04:52:10;;;;;;;29.08;27.58;;;;;;;11.48;100.00;101508.97;5115278;28;20124;-80
2021/05/04 04:54:36;;;;;;;30.75;29.17;;;;;;;11.75;100.00;101518.78;5114695;28;20054;-80
2021/05/04 04:57:03;;;;;;;31.85;30.00;;;;;;;11.78;100.00;101514.91;5114609;28;20486;-80
2021/05/04 04:59:30;;;;;;;32.67;31.05;;;;;;;11.96;100.00;101506.47;5114886;28;20043;-80
2021/05/04 05:01:57;;;;;;;32.50;30.85;;;;;;;11.90;100.00;101508.88;5114434;28;20059;-80
2021/05/04 05:04:24;;;;;;;28.83;27.35;;;;;;;12.03;100.00;101508.13;5114862;28;20052;-81
2021/05/04 05:06:50;;;;;;;31.50;29.80;;;;;;;12.11;100.00;101499.19;5114368;28;20055;-80
2021/05/04 05:09:17;;;;;;;31.58;30.08;;;;;;;12.24;100.00;101493.91;5114716;28;20052;-80
2021/05/04 05:11:43;;;;;;;33.17;31.50;;;;;;;12.27;100.00;101490.84;5114268;28;20059;-80
2021/05/04 05:14:09;;;;;;;25.98;24.67;;;;;;;12.02;100.00;101490.53;5114269;28;20058;-80
2021/05/04 05:16:36;;;;;;;31.02;29.52;;;;;;;12.21;100.00;101491.63;5114872;28;20047;-80
2021/05/04 05:19:04;;;;;;;26.35;25.15;;;;;;;12.32;100.00;101500.91;5114174;28;20043;-80
2021/05/04 05:21:31;;;;;;;25.88;24.67;;;;;;;12.38;100.00;101505.47;5114567;28;20416;-82
2021/05/04 05:23:59;;;;;;;27.27;25.67;;;;;;;12.27;100.00;101506.81;5114346;28;20048;-80
2021/05/04 05:26:25;;;;;;;28.63;27.23;;;;;;;12.30;100.00;101505.63;5114183;28;20560;-80
2021/05/04 05:28:53;;;;;;;27.17;25.67;;;;;;;12.44;100.00;101517.16;5113961;28;20054;-81
2021/05/04 05:31:20;;;;;;;28.92;27.30;;;;;;;12.55;100.00;101516.56;5114097;28;20071;-80
2021/05/04 05:33:46;;;;;;;32.22;30.70;;;;;;;12.57;100.00;101525.19;5114014;28;20055;-80
2021/05/04 05:36:14;;;;;;;30.13;28.50;;;;;;;12.30;100.00;101522.41;5114217;28;20051;-80
2021/05/04 05:38:41;;;;;;;30.20;28.67;;;;;;;12.50;100.00;101513.72;5114188;28;20055;-80
2021/05/04 05:41:07;;;;;;;28.10;26.70;;;;;;;12.59;100.00;101523.97;5114208;28;20052;-80
2021/05/04 05:43:33;;;;;;;27.50;26.10;;;;;;;12.39;100.00;101531.06;5114198;28;20047;-81
2021/05/04 05:46:02;;;;;;;27.58;26.08;;;;;;;12.61;100.00;101523.78;5114179;28;20544;-81
2021/05/04 05:48:28;;;;;;;29.85;28.40;;;;;;;12.64;100.00;101531.38;5114008;28;20047;-81
2021/05/04 05:50:54;;;;;;;30.48;28.67;;;;;;;12.67;100.00;101527.47;5114167;28;20117;-80
2021/05/04 05:53:22;;;;;;;31.50;30.00;;;;;;;12.56;100.00;101528.91;5114560;28;20112;-81
2021/05/04 05:55:49;;;;;;;33.58;31.92;;;;;;;12.93;100.00;101521.41;5114109;28;20047;-80
2021/05/04 05:58:15;;;;;;;29.13;27.73;;;;;;;12.66;100.00;101528.50;5114063;28;20454;-81
2021/05/04 06:00:41;;;;;;;28.30;26.77;;;;;;;13.24;100.00;101526.19;5113904;28;20052;-81
2021/05/04 06:03:08;;;;;;;26.83;25.52;;;;;;;13.10;100.00;101524.50;5113761;28;20056;-81
2021/05/04 06:05:35;;;;;;;29.00;27.40;;;;;;;13.50;100.00;101522.75;5113970;28;20047;-80
2021/05/04 06:08:02;;;;;;;29.85;28.35;;;;;;;13.13;100.00;101511.63;5113921;28;20395;-81
2021/05/04 06:10:29;;;;;;;29.10;27.63;;;;;;;13.30;100.00;101520.06;5113594;28;20043;-80
2021/05/04 06:13:00;;;;;;;27.20;25.80;;;;;;;13.24;100.00;101523.50;5113188;28;20055;-80
2021/05/04 06:15:26;;;;;;;27.83;26.23;;;;;;;15.23;100.00;101530.97;5113937;28;20051;-80
2021/05/04 06:17:52;;;;;;;26.27;24.77;;;;;;;13.46;100.00;101525.00;5113888;28;20058;-80
2021/05/04 06:20:19;;;;;;;27.55;26.05;;;;;;;13.73;100.00;101527.63;5113828;28;20040;-80
2021/05/04 06:22:45;;;;;;;27.85;26.40;;;;;;;13.85;100.00;101525.97;5113687;28;20044;-80
2021/05/04 06:25:12;;;;;;;31.23;29.10;;;;;;;14.11;100.00;101513.63;5114573;28;20129;-81
2021/05/04 06:27:39;;;;;;;28.42;26.77;;;;;;;14.13;100.00;101528.41;5113730;28;20055;-81
2021/05/04 06:30:06;;;;;;;29.38;27.98;;;;;;;13.89;100.00;101521.88;5116753;28;20381;-80
2021/05/04 06:32:32;;;;;;;28.95;27.48;;;;;;;13.68;100.00;101520.28;5118035;28;20051;-81
2021/05/04 06:34:59;;;;;;;27.65;25.73;;;;;;;14.09;100.00;101523.69;5117571;28;20503;-80
2021/05/04 06:37:25;;;;;;;27.92;26.45;;;;;;;14.44;100.00;101514.31;5119825;28;20043;-80
2021/05/04 06:39:51;;;;;;;26.33;24.83;;;;;;;14.78;100.00;101516.88;5118097;28;20048;-80
2021/05/04 06:42:18;;;;;;;61.05;31.65;;;;;;;14.86;100.00;101517.44;5114772;28;20040;-80
2021/05/04 06:44:45;;;;;;;27.70;26.20;;;;;;;14.23;100.00;101521.81;5113771;28;20457;-80
2021/05/04 06:47:11;;;;;;;28.52;26.90;;;;;;;14.78;100.00;101515.00;5113704;28;20448;-80
2021/05/04 06:49:37;;;;;;;28.60;27.00;;;;;;;14.83;100.00;101509.84;5113704;28;20055;-80
2021/05/04 06:52:04;;;;;;;28.50;27.20;;;;;;;15.17;100.00;101523.00;5114248;28;20052;-80
2021/05/04 06:54:32;;;;;;;28.45;26.80;;;;;;;14.96;100.00;101503.59;5113246;28;20047;-81
2021/05/04 06:56:58;;;;;;;27.33;25.75;;;;;;;14.87;100.00;101511.03;5113880;28;20075;-80
2021/05/04 06:59:24;;;;;;;27.60;26.10;;;;;;;14.76;100.00;101513.56;5116993;28;20043;-80
2021/05/04 07:01:51;;;;;;;28.88;27.35;;;;;;;15.34;100.00;101505.38;5116828;28;20051;-80
2021/05/04 07:04:17;;;;;;;28.73;27.23;;;;;;;14.92;100.00;101505.06;5117182;28;20052;-80
2021/05/04 07:06:44;;;;;;;27.67;26.23;;;;;;;15.44;100.00;101513.72;5116705;28;20057;-80
2021/05/04 07:09:10;;;;;;;27.75;26.15;;;;;;;15.92;100.00;101498.91;5117621;28;20047;-80
2021/05/04 07:11:37;;;;;;;32.00;30.33;;;;;;;16.40;100.00;101493.59;5117275;28;20047;-80
2021/05/04 07:14:04;;;;;;;28.92;27.50;;;;;;;15.11;100.00;101489.91;5118442;28;20446;-81
2021/05/04 07:16:31;;;;;;;27.73;26.23;;;;;;;15.35;100.00;101478.38;5117130;28;20056;-81
2021/05/04 07:18:58;;;;;;;31.23;29.73;;;;;;;15.75;100.00;101483.41;5116721;28;20059;-80
2021/05/04 07:21:24;;;;;;;28.63;27.20;;;;;;;15.79;100.00;101492.66;5116468;28;20043;-81
2021/05/04 07:23:50;;;;;;;30.48;28.90;;;;;;;15.61;100.00;101475.69;5116473;28;20048;-81
2021/05/04 07:26:17;;;;;;;29.83;28.33;;;;;;;16.43;100.00;101489.63;5116696;28;20051;-81
2021/05/04 07:28:44;;;;;;;28.88;27.13;;;;;;;16.47;100.00;101482.78;5116305;28;20460;-80
2021/05/04 07:31:11;;;;;;;26.92;25.52;;;;;;;16.53;100.00;101475.72;5116501;28;20055;-80
2021/05/04 07:33:37;;;;;;;26.73;24.92;;;;;;;16.24;100.00;101486.97;5116586;28;20048;-80
2021/05/04 07:36:05;;;;;;;30.55;28.30;;;;;;;16.55;100.00;101479.81;5116174;28;20048;-80
2021/05/04 07:38:31;;;;;;;29.02;27.40;;;;;;;16.70;100.00;101479.38;5116709;28;20060;-81
2021/05/04 07:40:58;;;;;;;25.77;24.35;;;;;;;17.06;100.00;101477.63;5116332;28;20055;-81
2021/05/04 07:43:24;;;;;;;30.33;28.65;;;;;;;16.66;100.00;101483.56;5116690;28;20044;-81
2021/05/04 07:45:51;;;;;;;28.17;26.15;;;;;;;16.74;100.00;101477.88;5116000;28;20052;-80
2021/05/04 07:48:17;;;;;;;28.45;26.92;;;;;;;16.94;100.00;101470.41;5116137;28;20109;-80
2021/05/04 07:50:44;;;;;;;30.17;28.75;;;;;;;17.35;100.00;101476.75;5115979;28;20476;-80
2021/05/04 07:53:11;;;;;;;25.98;24.67;;;;;;;17.10;100.00;101466.22;5115969;28;20092;-81
2021/05/04 07:55:37;;;;;;;27.67;26.27;;;;;;;16.85;100.00;101468.25;5116137;28;20058;-81
2021/05/04 07:58:04;;;;;;;33.08;31.38;;;;;;;17.40;100.00;101462.63;5115806;28;20522;-80
2021/05/04 08:00:30;;;;;;;30.20;28.65;;;;;;;17.60;100.00;101459.59;5115731;28;20472;-81
2021/05/04 08:02:57;;;;;;;33.00;31.30;;;;;;;17.01;100.00;101458.75;5115748;28;20051;-80
2021/05/04 08:05:23;;;;;;;27.67;26.38;;;;;;;17.19;100.00;101464.03;5115585;28;20492;-81
2021/05/04 08:07:49;;;;;;;28.35;26.60;;;;;;;17.50;100.00;101451.31;5116018;28;20055;-81
2021/05/04 08:10:16;;;;;;;29.52;27.88;;;;;;;17.06;100.00;101448.13;5114868;28;20058;-80
2021/05/04 08:12:43;;;;;;;30.60;29.05;;;;;;;17.74;100.00;101444.06;5115453;28;20474;-80
2021/05/04 08:15:14;;;;;;;25.40;24.20;;;;;;;17.48;100.00;101445.34;5115464;28;20040;-80
2021/05/04 08:17:42;;;;;;;29.60;28.15;;;;;;;17.80;100.00;101441.25;5115479;28;20048;-80
2021/05/04 08:20:10;;;;;;;28.67;27.08;;;;;;;17.54;100.00;101452.47;5115624;28;20047;-80
2021/05/04 08:22:36;;;;;;;29.48;28.17;;;;;;;17.69;100.00;101447.44;5115150;28;20454;-81
2021/05/04 08:25:04;;;;;;;31.60;30.00;;;;;;;18.19;100.00;101446.91;5115469;28;20044;-81
2021/05/04 08:27:31;;;;;;;33.33;31.83;;;;;;;18.00;100.00;101438.19;5115515;28;20039;-81
2021/05/04 08:29:57;;;;;;;33.95;32.45;;;;;;;18.18;100.00;101439.88;5115377;28;20044;-80
2021/05/04 08:32:24;;;;;;;34.05;32.45;;;;;;;17.99;100.00;101435.72;5115701;28;20051;-81
2021/05/04 08:34:50;;;;;;;32.45;30.45;;;;;;;18.38;100.00;101439.47;5115613;28;20074;-80
2021/05/04 08:37:16;;;;;;;33.13;31.63;;;;;;;18.20;100.00;101436.94;5115438;28;20066;-80
2021/05/04 08:39:42;;;;;;;27.85;26.45;;;;;;;17.84;98.67;101428.16;5115031;28;20051;-80
2021/05/04 08:42:09;;;;;;;28.83;27.13;;;;;;;17.75;100.00;101424.19;5115118;28;20051;-81
2021/05/04 08:44:38;;;;;;;27.52;26.08;;;;;;;17.60;97.54;101433.53;5114917;28;20059;-81
2021/05/04 08:47:05;;;;;;;32.30;30.65;;;;;;;18.56;100.00;101432.25;5115269;28;20484;-80
2021/05/04 08:49:32;;;;;;;28.67;27.08;;;;;;;18.71;100.00;101430.63;5114835;28;20044;-80
2021/05/04 08:51:59;;;;;;;30.10;28.50;;;;;;;18.78;100.00;101427.81;5115070;28;20058;-81
2021/05/04 08:54:25;;;;;;;37.63;35.72;;;;;;;18.98;99.45;101430.03;5114628;28;20391;-81
2021/05/04 08:56:52;;;;;;;32.70;30.80;;;;;;;18.46;95.71;101428.31;5114853;28;20116;-80
2021/05/04 08:59:18;;;;;;;27.98;26.40;;;;;;;18.87;100.00;101417.47;5114575;28;20058;-80
2021/05/04 09:01:45;;;;;;;28.95;27.00;;;;;;;18.70;93.92;101420.13;5114448;28;20052;-81
2021/05/04 09:04:38;;;;;;;41.95;28.17;;;;;;;18.99;100.00;101420.91;5114881;28;20051;-80
2021/05/04 09:07:16;;;;;;;26.63;24.92;;;;;;;19.86;94.60;101422.16;5095599;28;20055;-80
2021/05/04 09:10:09;;;;;;;26.58;25.08;;;;;;;19.43;100.00;101431.81;5114705;28;20161;-80
2021/05/04 09:12:39;;;;;;;27.67;26.27;;;;;;;18.97;98.34;101421.16;5114161;28;20138;-81
2021/05/04 09:15:35;;;;;;;24.48;23.17;;;;;;;19.03;100.00;101421.22;5115087;28;20396;-80
2021/05/04 09:18:39;;;;;;;27.40;25.90;;;;;;;19.24;95.70;101417.78;5114561;28;20043;-80
2021/05/04 09:21:08;;;;;;;28.77;27.45;;;;;;;19.23;87.90;101413.47;5114170;28;20135;-80
2021/05/04 09:23:35;;;;;;;26.38;24.88;;;;;;;19.69;69.91;101416.81;5114541;28;20117;-80
2021/05/04 09:26:01;;;;;;;25.85;24.30;;;;;;;19.14;83.94;101409.56;5114225;28;20139;-81
2021/05/04 09:28:28;;;;;;;25.42;24.13;;;;;;;19.55;100.00;101408.28;5114041;28;20055;-80
2021/05/04 09:30:56;;;;;;;26.10;24.80;;;;;;;19.21;82.20;101402.13;5114459;28;20372;-80
2021/05/04 09:33:24;;;;;;;25.48;24.27;;;;;;;19.31;100.00;101401.47;5114401;28;20044;-81
2021/05/04 09:35:51;;;;;;;26.02;24.60;;;;;;;19.36;100.00;101399.63;5114365;28;20058;-81
2021/05/04 09:38:19;;;;;;;27.33;26.02;;;;;;;20.08;81.09;101401.38;5114325;28;20051;-80
2021/05/04 09:40:47;;;;;;;27.25;25.95;;;;;;;19.63;100.00;101398.94;5113917;28;20051;-81
2021/05/04 09:43:15;;;;;;;27.95;26.58;;;;;;;19.31;100.00;101396.09;5114273;28;20048;-80
2021/05/04 09:45:43;;;;;;;26.65;25.10;;;;;;;19.40;91.90;101397.28;5114196;28;20389;-80
2021/05/04 09:48:22;;;;;;;26.90;25.30;;;;;;;20.05;90.66;101379.50;5114374;28;20056;-80
2021/05/04 09:50:59;;;;;;;26.90;25.58;;;;;;;20.90;86.15;101377.88;5114452;28;20411;-80
2021/05/04 09:53:35;;;;;;;27.52;25.92;;;;;;;20.37;79.72;101384.97;5113749;28;20051;-81
2021/05/04 09:56:03;;;;;;;27.38;25.98;;;;;;;20.47;72.03;101378.88;5114311;28;20051;-80
2021/05/04 09:58:40;;;;;;;26.63;25.23;;;;;;;21.16;78.04;101369.97;5115368;28;20043;-80
2021/05/04 10:01:09;;;;;;;25.80;24.48;;;;;;;21.40;62.75;101368.53;5118519;28;20058;-80
2021/05/04 10:03:37;;;;;;;28.25;26.70;;;;;;;20.02;80.01;101377.31;5117729;28;20051;-80
2021/05/04 10:06:06;;;;;;;31.98;30.48;;;;;;;20.57;74.46;101369.03;5113986;28;20525;-81
2021/05/04 10:08:34;;;;;;;28.40;26.90;;;;;;;21.20;74.42;101369.19;5113665;28;20040;-81
2021/05/04 10:11:03;;;;;;;28.13;26.67;;;;;;;20.07;100.00;101377.38;5114009;28;20047;-81
2021/05/04 10:13:31;;;;;;;31.52;29.83;;;;;;;21.81;62.54;101357.06;5113686;28;20451;-81
2021/05/04 10:15:58;;;;;;;30.23;28.63;;;;;;;21.32;66.13;101354.66;5113845;28;20040;-80
2021/05/04 10:18:25;;;;;;;29.52;27.92;;;;;;;21.42;53.71;101350.16;5113947;28;20044;-80
2021/05/04 10:20:53;;;;;;;28.63;27.02;;;;;;;21.15;74.57;101349.44;5113648;28;20130;-80
2021/05/04 10:23:21;;;;;;;26.92;25.42;;;;;;;20.94;69.61;101348.50;5114034;28;20120;-80
2021/05/04 10:25:51;;;;;;;28.17;26.65;;;;;;;21.20;73.65;101344.88;5113703;28;20495;-79
2021/05/04 10:28:18;;;;;;;28.95;27.55;;;;;;;21.20;70.81;101344.06;5113784;28;20131;-80
2021/05/04 10:30:46;;;;;;;30.35;28.50;;;;;;;21.72;65.34;101335.13;5113566;28;20051;-81
2021/05/04 10:33:30;;;;;;;30.88;29.27;;;;;;;22.27;49.40;101335.53;5115990;28;20065;-81
2021/05/04 10:36:00;;;;;;;38.55;36.65;;;;;;;20.74;66.50;101336.47;5115011;28;20104;-81
2021/05/04 10:38:48;;;;;;;32.42;30.73;;;;;;;22.41;65.87;101323.91;5117293;28;20044;-80
2021/05/04 10:41:14;;;;;;;44.15;41.97;;;;;;;21.20;94.93;101323.25;5117227;28;20372;-80
2021/05/04 10:43:41;;;;;;;39.33;37.53;;;;;;;21.09;79.74;101328.88;5117251;28;20062;-80
2021/05/04 10:46:33;;;;;;;34.33;32.47;;;;;;;21.00;74.39;101312.38;5117568;28;20047;-80
2021/05/04 10:49:01;;;;;;;38.22;35.97;;;;;;;21.38;79.76;101305.00;5117363;28;20047;-80
2021/05/04 10:51:44;;;;;;;34.90;33.10;;;;;;;21.20;78.62;101311.66;5117281;28;20044;-80
2021/05/04 10:54:12;;;;;;;28.13;26.67;;;;;;;21.33;83.94;101307.66;5117202;28;20047;-79
2021/05/04 10:56:43;;;;;;;28.20;26.70;;;;;;;21.94;76.58;101300.59;5116941;28;20047;-80
2021/05/04 10:59:11;;;;;;;29.13;27.63;;;;;;;21.28;70.69;101303.88;5116917;28;20050;-80
2021/05/04 11:01:38;;;;;;;37.50;35.50;;;;;;;20.68;82.79;101301.63;5116778;28;20297;-80
2021/05/04 11:04:07;;;;;;;28.40;26.98;;;;;;;21.55;87.93;101294.81;5116983;28;20052;-80
2021/05/04 11:06:47;;;;;;;27.35;25.75;;;;;;;21.26;72.37;101302.50;5117023;28;20412;-80
2021/05/04 11:09:15;;;;;;;35.72;33.55;;;;;;;23.53;57.38;101292.28;5116614;28;20051;-80